Fernwood, Idaho
Current Conditions -  °F | °C
As of 7:53 PM on Saturday 22 Nov 2014 (Local Time) from KMLP Reporting Station
Light Snow Light Snow  
Wind Chill: 17°   Ceiling: 100
Heat Index: 24°   Visibility: 0.5mi
Dew Point: 24°   Wind: 6mph
Humidity: 100%   Direction: NA
Pressure: 29.74"   Gusts: 17mph
Location:  47.11°N, 116.4°W
Report Text: KMLP 230353Z AUTO VRB05G15KT 1/2SM -SN FZFG VV001 M04/M04 A2974 RMK AO2 SLP108 P0000 T10441044
Loading
Personal Weather Stations






























Interactive Weather Map New forecast layout! Learn more

10-Day Weather Forecast

Advertisements
Track Severe Weather on mobile